createdAt,value
2023-05-09T00:00:42.142Z,503.00
2023-05-09T00:01:42.203Z,505.00
2023-05-09T00:02:42.497Z,504.00
2023-05-09T00:03:42.333Z,500.00
2023-05-09T00:04:42.408Z,505.00
2023-05-09T00:05:42.436Z,502.00
2023-05-09T00:06:42.493Z,504.00
2023-05-09T00:07:42.541Z,505.00
2023-05-09T00:08:42.562Z,507.00
2023-05-09T00:09:42.612Z,506.00
2023-05-09T00:10:42.668Z,502.00
2023-05-09T00:11:42.732Z,506.00
2023-05-09T00:12:42.820Z,509.00
2023-05-09T00:13:42.812Z,505.00
2023-05-09T00:14:42.849Z,501.00
2023-05-09T00:15:42.883Z,502.00
2023-05-09T00:16:43.008Z,503.00
2023-05-09T00:17:43.064Z,507.00
2023-05-09T00:18:43.083Z,509.00
2023-05-09T00:19:43.971Z,507.00
2023-05-09T00:20:43.168Z,501.00
2023-05-09T00:21:43.243Z,502.00
2023-05-09T00:22:43.296Z,501.00
2023-05-09T00:23:43.311Z,503.00
2023-05-09T00:24:43.406Z,505.00
2023-05-09T00:25:43.442Z,505.00
2023-05-09T00:26:43.518Z,509.00
2023-05-09T00:27:43.572Z,509.00
2023-05-09T00:28:43.712Z,506.00
2023-05-09T00:29:43.668Z,507.00
2023-05-09T00:30:43.704Z,500.00
2023-05-09T00:31:43.965Z,504.00
2023-05-09T00:32:43.860Z,502.00
2023-05-09T00:33:43.863Z,507.00
2023-05-09T00:34:43.892Z,509.00
2023-05-09T00:35:43.982Z,508.00
2023-05-09T00:36:44.057Z,505.00
2023-05-09T00:37:44.102Z,507.00
2023-05-09T00:38:44.132Z,507.00
2023-05-09T00:39:44.190Z,502.00
2023-05-09T00:40:44.240Z,500.00
2023-05-09T00:41:44.267Z,505.00
2023-05-09T00:42:44.302Z,502.00
2023-05-09T00:43:44.351Z,508.00
2023-05-09T00:44:44.510Z,505.00
2023-05-09T00:45:44.459Z,503.00
2023-05-09T00:46:44.509Z,503.00
2023-05-09T00:47:44.574Z,506.00
2023-05-09T00:48:44.592Z,501.00
2023-05-09T00:49:44.649Z,505.00
2023-05-09T00:50:44.715Z,505.00
2023-05-09T00:51:44.768Z,504.00
2023-05-09T00:52:44.833Z,506.00
2023-05-09T00:53:44.857Z,502.00
2023-05-09T00:54:44.905Z,509.00
2023-05-09T00:55:44.975Z,507.00
2023-05-09T00:56:45.058Z,506.00
2023-05-09T00:57:45.064Z,506.00
2023-05-09T00:58:45.129Z,509.00
2023-05-09T00:59:45.176Z,507.00
2023-05-09T01:00:45.309Z,504.00
2023-05-09T01:01:45.394Z,506.00
2023-05-09T01:02:45.443Z,501.00
2023-05-09T01:03:45.451Z,502.00
2023-05-09T01:04:45.439Z,507.00
2023-05-09T01:05:45.486Z,511.00
2023-05-09T01:06:45.535Z,507.00
2023-05-09T01:07:45.583Z,508.00
2023-05-09T01:08:45.618Z,506.00
2023-05-09T01:09:45.656Z,500.00
2023-05-09T01:10:45.694Z,511.00
2023-05-09T01:11:45.974Z,508.00
2023-05-09T01:12:45.786Z,502.00
2023-05-09T01:13:45.805Z,504.00
2023-05-09T01:14:45.887Z,500.00
2023-05-09T01:15:45.973Z,504.00
2023-05-09T01:16:46.072Z,509.00
2023-05-09T01:17:46.130Z,506.00
2023-05-09T01:18:46.060Z,509.00
2023-05-09T01:19:46.085Z,505.00
2023-05-09T01:20:46.158Z,502.00
2023-05-09T01:21:46.198Z,503.00
2023-05-09T01:22:46.231Z,509.00
2023-05-09T01:23:46.311Z,508.00
2023-05-09T01:24:46.350Z,505.00
2023-05-09T01:25:46.380Z,508.00
2023-05-09T01:26:46.437Z,506.00
2023-05-09T01:27:46.481Z,504.00
2023-05-09T01:28:46.544Z,506.00
2023-05-09T01:29:46.557Z,506.00
2023-05-09T01:30:46.620Z,503.00
2023-05-09T01:31:46.792Z,504.00
2023-05-09T01:32:46.774Z,506.00
2023-05-09T01:33:46.682Z,503.00
2023-05-09T01:34:46.752Z,506.00
2023-05-09T01:35:46.794Z,503.00
2023-05-09T01:36:46.841Z,505.00
2023-05-09T01:37:46.850Z,508.00
2023-05-09T01:38:46.890Z,507.00
2023-05-09T01:39:46.916Z,505.00
2023-05-09T01:40:46.973Z,500.00
2023-05-09T01:41:47.490Z,503.00
2023-05-09T01:42:47.028Z,503.00
2023-05-09T01:43:47.133Z,504.00
2023-05-09T01:44:47.105Z,509.00
2023-05-09T01:45:47.166Z,507.00
2023-05-09T01:46:47.523Z,506.00
2023-05-09T01:47:47.313Z,508.00
2023-05-09T01:48:47.376Z,507.00
2023-05-09T01:49:47.317Z,503.00
2023-05-09T01:50:47.451Z,503.00
2023-05-09T01:51:47.481Z,506.00
2023-05-09T01:52:47.495Z,509.00
2023-05-09T01:53:47.533Z,509.00
2023-05-09T01:54:47.559Z,505.00
2023-05-09T01:55:47.693Z,509.00
2023-05-09T01:56:48.006Z,505.00
2023-05-09T01:57:47.706Z,509.00
2023-05-09T01:58:47.735Z,503.00
2023-05-09T01:59:47.754Z,506.00
2023-05-09T02:00:47.871Z,505.00
2023-05-09T02:01:48.078Z,500.00
2023-05-09T02:02:48.010Z,506.00
2023-05-09T02:03:47.931Z,506.00
2023-05-09T02:04:48.064Z,506.00
2023-05-09T02:05:48.047Z,509.00
2023-05-09T02:06:48.513Z,509.00
2023-05-09T02:07:48.110Z,509.00
2023-05-09T02:08:48.191Z,509.00
2023-05-09T02:09:48.208Z,505.00
2023-05-09T02:10:48.242Z,504.00
2023-05-09T02:11:48.284Z,506.00
2023-05-09T02:12:48.314Z,507.00
2023-05-09T02:13:48.368Z,505.00
2023-05-09T02:14:48.384Z,508.00
2023-05-09T02:15:48.417Z,509.00
2023-05-09T02:16:48.517Z,509.00
2023-05-09T02:17:48.586Z,503.00
2023-05-09T02:18:48.557Z,505.00
2023-05-09T02:19:48.635Z,510.00
2023-05-09T02:20:48.840Z,507.00
2023-05-09T02:21:48.996Z,509.00
2023-05-09T02:22:48.802Z,505.00
2023-05-09T02:23:48.855Z,507.00
2023-05-09T02:24:48.906Z,507.00
2023-05-09T02:25:48.915Z,508.00
2023-05-09T02:26:49.062Z,507.00
2023-05-09T02:27:48.980Z,506.00
2023-05-09T02:28:49.001Z,506.00
2023-05-09T02:29:49.041Z,509.00
2023-05-09T02:30:49.082Z,504.00
2023-05-09T02:31:49.147Z,507.00
2023-05-09T02:32:49.227Z,506.00
2023-05-09T02:33:49.204Z,508.00
2023-05-09T02:34:49.229Z,507.00
2023-05-09T02:35:49.300Z,509.00
2023-05-09T02:36:49.602Z,508.00
2023-05-09T02:37:49.369Z,505.00
2023-05-09T02:38:49.388Z,506.00
2023-05-09T02:39:49.413Z,505.00
2023-05-09T02:40:50.997Z,506.00
2023-05-09T02:41:49.536Z,508.00
2023-05-09T02:42:49.419Z,507.00
2023-05-09T02:43:49.422Z,504.00
2023-05-09T02:44:49.442Z,505.00
2023-05-09T02:45:49.479Z,505.00
2023-05-09T02:46:49.408Z,505.00
2023-05-09T02:47:49.423Z,506.00
2023-05-09T02:48:49.403Z,510.00
2023-05-09T02:49:49.387Z,508.00
2023-05-09T02:50:49.358Z,507.00
2023-05-09T02:51:49.387Z,502.00
2023-05-09T02:52:49.469Z,507.00
2023-05-09T02:53:49.351Z,511.00
2023-05-09T02:54:49.341Z,505.00
2023-05-09T02:55:49.312Z,511.00
2023-05-09T02:56:49.321Z,513.00
2023-05-09T02:57:56.234Z,507.00
2023-05-09T02:58:50.303Z,508.00
2023-05-09T02:59:49.329Z,509.00
2023-05-09T03:00:49.296Z,510.00
2023-05-09T03:01:49.390Z,513.00
2023-05-09T03:02:49.591Z,506.00
2023-05-09T03:03:49.298Z,510.00
2023-05-09T03:04:49.318Z,506.00
2023-05-09T03:05:49.261Z,509.00
2023-05-09T03:06:49.292Z,508.00
2023-05-09T03:07:49.283Z,505.00
2023-05-09T03:08:49.336Z,507.00
2023-05-09T03:09:49.250Z,508.00
2023-05-09T03:10:49.266Z,505.00
2023-05-09T03:11:49.265Z,504.00
2023-05-09T03:12:49.336Z,503.00
2023-05-09T03:13:49.282Z,511.00
2023-05-09T03:14:49.289Z,507.00
2023-05-09T03:15:49.307Z,505.00
2023-05-09T03:16:49.364Z,506.00
2023-05-09T03:17:49.439Z,511.00
2023-05-09T03:18:49.368Z,504.00
2023-05-09T03:19:49.411Z,502.00
2023-05-09T03:20:49.396Z,507.00
2023-05-09T03:21:49.445Z,501.00
2023-05-09T03:22:49.512Z,505.00
2023-05-09T03:23:49.514Z,500.00
2023-05-09T03:24:49.568Z,509.00
2023-05-09T03:25:49.458Z,504.00
2023-05-09T03:26:49.518Z,508.00
2023-05-09T03:27:49.576Z,505.00
2023-05-09T03:28:49.523Z,505.00
2023-05-09T03:29:49.552Z,507.00
2023-05-09T03:30:49.568Z,509.00
2023-05-09T03:31:49.651Z,511.00
2023-05-09T03:32:49.652Z,504.00
2023-05-09T03:33:49.619Z,505.00
2023-05-09T03:34:49.659Z,510.00
2023-05-09T03:35:49.667Z,507.00
2023-05-09T03:36:49.665Z,505.00
2023-05-09T03:37:49.685Z,508.00
2023-05-09T03:38:49.708Z,505.00
2023-05-09T03:39:49.703Z,505.00
2023-05-09T03:40:49.824Z,506.00
2023-05-09T03:41:49.787Z,508.00
2023-05-09T03:42:50.053Z,512.00
2023-05-09T03:43:49.828Z,507.00
2023-05-09T03:44:49.816Z,503.00
2023-05-09T03:45:49.820Z,508.00
2023-05-09T03:46:49.862Z,510.00
2023-05-09T03:47:49.915Z,507.00
2023-05-09T03:48:49.874Z,510.00
2023-05-09T03:49:49.939Z,504.00
2023-05-09T03:50:49.922Z,508.00
2023-05-09T03:51:49.931Z,512.00
2023-05-09T03:52:49.899Z,513.00
2023-05-09T03:53:49.913Z,509.00
2023-05-09T03:54:49.998Z,512.00
2023-05-09T03:55:50.033Z,513.00
2023-05-09T03:56:50.109Z,507.00
2023-05-09T03:57:50.025Z,511.00
2023-05-09T03:58:50.043Z,507.00
2023-05-09T03:59:50.076Z,504.00
2023-05-09T04:00:50.091Z,508.00
2023-05-09T04:01:50.114Z,510.00
2023-05-09T04:02:50.130Z,510.00
2023-05-09T04:03:50.135Z,511.00
2023-05-09T04:04:50.130Z,510.00
2023-05-09T04:05:50.136Z,512.00
2023-05-09T04:06:50.128Z,509.00
2023-05-09T04:07:50.176Z,512.00
2023-05-09T04:08:50.190Z,510.00
2023-05-09T04:09:50.178Z,506.00
2023-05-09T04:10:50.242Z,508.00
2023-05-09T04:11:50.248Z,508.00
2023-05-09T04:12:50.404Z,509.00
2023-05-09T04:13:50.279Z,509.00
2023-05-09T04:14:50.275Z,513.00
2023-05-09T04:15:50.273Z,510.00
2023-05-09T04:16:50.354Z,514.00
2023-05-09T04:17:50.329Z,511.00
2023-05-09T04:18:50.354Z,508.00
2023-05-09T04:19:50.360Z,511.00
2023-05-09T04:20:50.354Z,517.00
2023-05-09T04:21:50.382Z,509.00
2023-05-09T04:22:50.424Z,512.00
2023-05-09T04:23:50.443Z,510.00
2023-05-09T04:24:50.462Z,513.00
2023-05-09T04:25:50.476Z,514.00
2023-05-09T04:26:50.469Z,510.00
2023-05-09T04:27:50.517Z,514.00
2023-05-09T04:28:50.646Z,513.00
2023-05-09T04:29:50.542Z,516.00
2023-05-09T04:30:50.625Z,512.00
2023-05-09T04:31:50.749Z,512.00
2023-05-09T04:32:50.620Z,512.00
2023-05-09T04:33:50.627Z,515.00
2023-05-09T04:34:50.669Z,514.00
2023-05-09T04:35:50.712Z,510.00
2023-05-09T04:36:50.732Z,517.00
2023-05-09T04:37:51.076Z,515.00
2023-05-09T04:38:50.792Z,521.00
2023-05-09T04:39:50.831Z,513.00
2023-05-09T04:40:50.866Z,517.00
2023-05-09T04:41:50.924Z,517.00
2023-05-09T04:42:50.952Z,516.00
2023-05-09T04:43:50.987Z,515.00
2023-05-09T04:44:51.054Z,518.00
2023-05-09T04:45:51.080Z,516.00
2023-05-09T04:46:51.098Z,516.00
2023-05-09T04:47:51.646Z,517.00
2023-05-09T04:48:51.167Z,519.00
2023-05-09T04:49:51.226Z,515.00
2023-05-09T04:50:51.282Z,517.00
2023-05-09T04:51:51.311Z,519.00
2023-05-09T04:52:51.335Z,520.00
2023-05-09T04:53:51.367Z,517.00
2023-05-09T04:54:51.419Z,516.00
2023-05-09T04:55:51.379Z,514.00
2023-05-09T04:56:51.627Z,514.00
2023-05-09T04:57:51.438Z,515.00
2023-05-09T04:58:51.456Z,509.00
2023-05-09T04:59:51.446Z,512.00
2023-05-09T05:00:51.547Z,517.00
2023-05-09T05:01:51.524Z,516.00
2023-05-09T05:02:51.596Z,510.00
2023-05-09T05:03:51.518Z,518.00
2023-05-09T05:04:52.857Z,515.00
2023-05-09T05:05:51.565Z,516.00
2023-05-09T05:06:51.514Z,515.00
2023-05-09T05:07:51.505Z,517.00
2023-05-09T05:08:51.515Z,518.00
2023-05-09T05:09:51.524Z,519.00
2023-05-09T05:10:51.518Z,513.00
2023-05-09T05:12:00.750Z,511.00
2023-05-09T05:12:52.488Z,512.00
2023-05-09T05:13:51.466Z,513.00
2023-05-09T05:14:51.446Z,515.00
2023-05-09T05:15:51.526Z,517.00
2023-05-09T05:16:51.467Z,518.00
2023-05-09T05:17:51.484Z,518.00
2023-05-09T05:18:51.445Z,514.00
2023-05-09T05:19:51.432Z,516.00
2023-05-09T05:20:51.430Z,532.00
2023-05-09T05:21:51.435Z,568.00
2023-05-09T05:22:51.410Z,608.00
2023-05-09T05:23:51.410Z,652.00
2023-05-09T05:24:51.390Z,604.00
2023-05-09T05:25:51.402Z,608.00
2023-05-09T05:26:51.373Z,595.00
2023-05-09T05:27:51.362Z,581.00
2023-05-09T05:28:51.409Z,576.00
2023-05-09T05:29:51.349Z,576.00
2023-05-09T05:30:51.375Z,575.00
2023-05-09T05:31:51.440Z,577.00
2023-05-09T05:32:51.617Z,577.00
2023-05-09T05:33:51.352Z,573.00
2023-05-09T05:34:51.378Z,568.00
2023-05-09T05:35:51.428Z,567.00
2023-05-09T05:36:51.406Z,568.00
2023-05-09T05:37:51.429Z,568.00
2023-05-09T05:38:51.433Z,573.00
2023-05-09T05:39:51.455Z,565.00
2023-05-09T05:40:51.531Z,569.00
2023-05-09T05:41:51.515Z,561.00
2023-05-09T05:42:51.573Z,562.00
2023-05-09T05:43:54.096Z,563.00
2023-05-09T05:44:51.525Z,566.00
2023-05-09T05:45:51.531Z,584.00
2023-05-09T05:46:51.532Z,585.00
2023-05-09T05:47:51.519Z,626.00
2023-05-09T05:48:51.598Z,600.00
2023-05-09T05:49:51.534Z,600.00
2023-05-09T05:50:51.505Z,613.00
2023-05-09T05:51:51.466Z,614.00
2023-05-09T05:52:51.575Z,628.00
2023-05-09T05:53:51.528Z,638.00
2023-05-09T05:54:51.467Z,650.00
2023-05-09T05:55:51.472Z,648.00
2023-05-09T05:56:51.480Z,658.00
2023-05-09T05:57:51.571Z,674.00
2023-05-09T05:58:51.450Z,721.00
2023-05-09T05:59:51.454Z,733.00
2023-05-09T06:00:51.427Z,774.00
2023-05-09T06:01:51.483Z,771.00
2023-05-09T06:02:51.700Z,812.00
2023-05-09T06:03:51.506Z,828.00
2023-05-09T06:04:52.703Z,847.00
2023-05-09T06:05:51.439Z,848.00
2023-05-09T06:06:51.477Z,853.00
2023-05-09T06:07:51.547Z,869.00
2023-05-09T06:08:51.528Z,901.00
2023-05-09T06:09:51.532Z,963.00
2023-05-09T06:10:51.522Z,979.00
2023-05-09T06:11:51.603Z,1002.00
2023-05-09T06:12:51.650Z,1034.00
2023-05-09T06:13:51.575Z,1056.00
2023-05-09T06:14:51.603Z,1083.00
2023-05-09T06:15:51.603Z,1105.00
2023-05-09T06:16:51.620Z,1117.00
2023-05-09T06:17:52.120Z,1148.00
2023-05-09T06:18:53.432Z,1181.00
2023-05-09T06:19:51.656Z,1215.00
2023-05-09T06:20:51.627Z,1234.00
2023-05-09T06:21:51.651Z,1243.00
2023-05-09T06:22:51.620Z,1269.00
2023-05-09T06:24:07.843Z,1280.00
2023-05-09T06:24:52.654Z,1283.00
2023-05-09T06:25:51.623Z,1290.00
2023-05-09T06:26:51.603Z,1306.00
2023-05-09T06:27:51.626Z,1338.00
2023-05-09T06:28:51.569Z,1388.00
2023-05-09T06:29:51.592Z,1391.00
2023-05-09T06:30:51.584Z,1414.00
2023-05-09T06:31:51.686Z,1426.00
2023-05-09T06:32:51.610Z,1450.00
2023-05-09T06:33:52.096Z,1459.00
2023-05-09T06:34:51.643Z,1476.00
2023-05-09T06:35:51.708Z,1482.00
2023-05-09T06:36:51.833Z,1503.00
2023-05-09T06:37:51.817Z,1517.00
2023-05-09T06:38:52.103Z,1552.00
2023-05-09T06:39:51.913Z,1545.00
2023-05-09T06:40:51.958Z,1561.00
2023-05-09T06:41:52.026Z,1582.00
2023-05-09T06:42:52.060Z,1591.00
2023-05-09T06:43:52.085Z,1604.00
2023-05-09T06:44:52.244Z,1626.00
2023-05-09T06:45:52.213Z,1646.00
2023-05-09T06:46:52.237Z,1647.00
2023-05-09T06:47:52.324Z,1657.00
2023-05-09T06:48:52.363Z,1686.00
2023-05-09T06:49:52.428Z,1681.00
2023-05-09T06:50:52.435Z,1692.00
2023-05-09T06:51:52.489Z,1703.00
2023-05-09T06:52:52.626Z,1687.00
2023-05-09T06:53:52.583Z,1680.00
2023-05-09T06:54:52.633Z,1643.00
2023-05-09T06:55:52.711Z,1666.00
2023-05-09T06:56:52.740Z,1676.00
2023-05-09T06:57:52.815Z,1649.00
2023-05-09T06:58:52.905Z,1659.00
2023-05-09T06:59:52.926Z,1693.00
2023-05-09T07:00:52.953Z,1733.00
2023-05-09T07:01:53.060Z,1733.00
2023-05-09T07:02:53.104Z,1836.00
2023-05-09T07:03:53.092Z,1827.00
2023-05-09T07:04:53.148Z,1809.00
2023-05-09T07:05:54.126Z,1810.00
2023-05-09T07:06:53.227Z,1811.00
2023-05-09T07:07:53.162Z,1815.00
2023-05-09T07:08:53.135Z,1812.00
2023-05-09T07:10:00.621Z,1830.00
2023-05-09T07:10:54.301Z,1811.00
2023-05-09T07:12:00.456Z,1815.00
2023-05-09T07:12:53.308Z,1813.00
2023-05-09T07:13:53.117Z,1821.00
2023-05-09T07:14:53.115Z,1836.00
2023-05-09T07:15:53.140Z,1859.00
2023-05-09T07:16:53.098Z,1906.00
2023-05-09T07:17:53.099Z,1911.00
2023-05-09T07:18:53.080Z,1912.00
2023-05-09T07:19:53.088Z,1922.00
2023-05-09T07:20:53.067Z,1915.00
2023-05-09T07:21:53.046Z,1933.00
2023-05-09T07:22:53.108Z,1940.00
2023-05-09T07:23:53.179Z,1939.00
2023-05-09T07:24:53.152Z,1928.00
2023-05-09T07:25:52.995Z,1922.00
2023-05-09T07:26:53.008Z,1911.00
2023-05-09T07:27:53.045Z,1916.00
2023-05-09T07:28:53.005Z,1923.00
2023-05-09T07:29:52.996Z,1918.00
2023-05-09T07:30:53.016Z,1938.00
2023-05-09T07:31:53.001Z,1932.00
2023-05-09T07:32:53.019Z,1937.00
2023-05-09T07:33:52.991Z,1948.00
2023-05-09T07:34:52.956Z,1951.00
2023-05-09T07:35:53.070Z,1970.00
2023-05-09T07:36:52.955Z,1960.00
2023-05-09T07:37:52.935Z,1968.00
2023-05-09T07:38:52.918Z,1980.00
2023-05-09T07:39:52.955Z,1991.00
2023-05-09T07:40:53.018Z,1994.00
2023-05-09T07:41:52.948Z,1995.00
2023-05-09T07:42:52.918Z,1999.00
2023-05-09T07:43:53.124Z,2014.00
2023-05-09T07:44:52.906Z,2010.00
2023-05-09T07:45:52.936Z,2018.00
2023-05-09T07:46:52.889Z,2029.00
2023-05-09T07:47:52.975Z,2051.00
2023-05-09T07:48:53.133Z,2065.00
2023-05-09T07:49:52.868Z,2062.00
2023-05-09T07:50:52.893Z,2049.00
2023-05-09T07:51:52.872Z,2048.00
2023-05-09T07:52:52.927Z,2041.00
2023-05-09T07:53:52.871Z,2050.00
2023-05-09T07:54:52.818Z,2058.00
2023-05-09T07:55:52.837Z,2040.00
2023-05-09T07:56:52.983Z,2059.00
2023-05-09T07:57:52.811Z,2070.00
2023-05-09T07:58:55.057Z,1977.00
2023-05-09T07:59:52.836Z,1743.00
2023-05-09T08:00:52.819Z,1508.00
2023-05-09T08:01:52.880Z,1310.00
2023-05-09T08:02:52.930Z,1190.00
2023-05-09T08:03:53.288Z,1132.00
2023-05-09T08:04:52.777Z,1047.00
2023-05-09T08:05:52.791Z,930.00
2023-05-09T08:06:52.779Z,868.00
2023-05-09T08:07:52.806Z,752.00
2023-05-09T08:08:52.780Z,719.00
2023-05-09T08:09:52.755Z,644.00
2023-05-09T08:10:52.776Z,640.00
2023-05-09T08:11:52.749Z,612.00
2023-05-09T08:12:52.811Z,609.00
2023-05-09T08:13:52.732Z,595.00
2023-05-09T08:14:52.736Z,584.00
2023-05-09T08:15:52.754Z,590.00
2023-05-09T08:16:52.727Z,573.00
2023-05-09T08:17:52.747Z,572.00
2023-05-09T08:18:52.710Z,582.00
2023-05-09T08:19:52.677Z,588.00
2023-05-09T08:20:52.699Z,591.00
2023-05-09T08:21:52.652Z,606.00
2023-05-09T08:22:52.659Z,611.00
2023-05-09T08:23:52.664Z,628.00
2023-05-09T08:24:52.681Z,640.00
2023-05-09T08:25:52.667Z,643.00
2023-05-09T08:26:52.670Z,648.00
2023-05-09T08:27:53.140Z,650.00
2023-05-09T08:28:52.660Z,660.00
2023-05-09T08:29:52.603Z,670.00
2023-05-09T08:30:52.615Z,682.00
2023-05-09T08:31:52.716Z,698.00
2023-05-09T08:32:52.685Z,715.00
2023-05-09T08:33:52.577Z,742.00
2023-05-09T08:34:52.557Z,765.00
2023-05-09T08:35:52.604Z,775.00
2023-05-09T08:36:52.565Z,788.00
2023-05-09T08:37:52.558Z,797.00
2023-05-09T08:38:52.663Z,823.00
2023-05-09T08:39:52.528Z,824.00
2023-05-09T08:40:52.548Z,851.00
2023-05-09T08:41:52.536Z,857.00
2023-05-09T08:42:52.545Z,877.00
2023-05-09T08:43:52.538Z,896.00
2023-05-09T08:44:52.585Z,916.00
2023-05-09T08:45:52.520Z,957.00
2023-05-09T08:46:52.533Z,966.00
2023-05-09T08:47:52.535Z,994.00
2023-05-09T08:48:52.667Z,993.00
2023-05-09T08:49:52.469Z,957.00
2023-05-09T08:50:52.505Z,983.00
2023-05-09T08:51:52.490Z,985.00
2023-05-09T08:52:52.453Z,851.00
2023-05-09T08:53:52.540Z,824.00
2023-05-09T08:54:52.591Z,832.00
2023-05-09T08:55:52.643Z,897.00
2023-05-09T08:56:52.666Z,732.00
2023-05-09T08:57:52.739Z,664.00
2023-05-09T08:58:52.810Z,634.00
2023-05-09T08:59:52.856Z,688.00
2023-05-09T09:00:53.057Z,729.00
2023-05-09T09:01:53.012Z,789.00
2023-05-09T09:02:53.098Z,839.00
2023-05-09T09:03:53.197Z,814.00
2023-05-09T09:04:53.129Z,817.00
2023-05-09T09:05:53.130Z,832.00
2023-05-09T09:06:53.181Z,841.00
2023-05-09T09:07:53.196Z,850.00
2023-05-09T09:08:53.664Z,850.00
2023-05-09T09:09:53.251Z,853.00
2023-05-09T09:10:53.301Z,863.00
2023-05-09T09:11:53.358Z,867.00
2023-05-09T09:12:53.343Z,885.00
2023-05-09T09:13:53.375Z,878.00
2023-05-09T09:14:53.410Z,845.00
2023-05-09T09:15:53.423Z,858.00
2023-05-09T09:16:53.525Z,866.00
2023-05-09T09:17:53.474Z,863.00
2023-05-09T09:18:53.711Z,853.00
2023-05-09T09:19:53.504Z,850.00
2023-05-09T09:20:53.496Z,841.00
2023-05-09T09:21:53.510Z,792.00
2023-05-09T09:22:53.541Z,664.00
2023-05-09T09:23:53.655Z,645.00
2023-05-09T09:24:53.652Z,615.00
2023-05-09T09:25:53.674Z,590.00
2023-05-09T09:26:53.716Z,532.00
2023-05-09T09:27:53.803Z,538.00
2023-05-09T09:28:53.816Z,540.00
2023-05-09T09:29:53.839Z,503.00
2023-05-09T09:30:53.912Z,502.00
2023-05-09T09:31:54.015Z,496.00
2023-05-09T09:32:54.137Z,508.00
2023-05-09T09:33:54.063Z,507.00
2023-05-09T09:34:54.080Z,533.00
2023-05-09T09:35:54.127Z,556.00
2023-05-09T09:36:54.206Z,570.00
2023-05-09T09:37:54.177Z,579.00
2023-05-09T09:38:54.708Z,600.00
2023-05-09T09:39:54.248Z,599.00
2023-05-09T09:40:54.259Z,613.00
2023-05-09T09:41:54.282Z,624.00
2023-05-09T09:42:54.290Z,630.00
2023-05-09T09:43:54.755Z,646.00
2023-05-09T09:44:54.682Z,660.00
2023-05-09T09:45:54.466Z,681.00
2023-05-09T09:46:54.345Z,696.00
2023-05-09T09:47:54.400Z,722.00
2023-05-09T09:48:54.438Z,746.00
2023-05-09T09:49:54.725Z,729.00
2023-05-09T09:50:54.402Z,740.00
2023-05-09T09:51:54.415Z,771.00
2023-05-09T09:52:54.421Z,729.00
2023-05-09T09:53:54.427Z,741.00
2023-05-09T09:54:54.674Z,641.00
2023-05-09T09:55:54.469Z,710.00
2023-05-09T09:56:54.517Z,688.00
2023-05-09T09:57:54.520Z,729.00
2023-05-09T09:58:54.539Z,748.00
2023-05-09T09:59:54.675Z,756.00
2023-05-09T10:00:54.595Z,768.00
2023-05-09T10:01:54.578Z,786.00
2023-05-09T10:02:54.611Z,811.00
2023-05-09T10:03:54.633Z,835.00
2023-05-09T10:04:54.656Z,863.00
2023-05-09T10:05:54.596Z,896.00
2023-05-09T10:06:54.615Z,918.00
2023-05-09T10:07:54.616Z,951.00
2023-05-09T10:08:54.645Z,970.00
2023-05-09T10:09:54.656Z,994.00
2023-05-09T10:10:54.706Z,1025.00
2023-05-09T10:11:54.708Z,1040.00
2023-05-09T10:12:54.798Z,1053.00
2023-05-09T10:13:54.814Z,1097.00
2023-05-09T10:14:55.185Z,1115.00
2023-05-09T10:15:54.956Z,1139.00
2023-05-09T10:16:55.333Z,1166.00
2023-05-09T10:17:55.553Z,1183.00
2023-05-09T10:18:55.135Z,1203.00
2023-05-09T10:19:55.176Z,1222.00
2023-05-09T10:20:55.164Z,1243.00
2023-05-09T10:21:55.129Z,1259.00
2023-05-09T10:22:55.179Z,1286.00
2023-05-09T10:23:55.244Z,1321.00
2023-05-09T10:24:56.932Z,1259.00
2023-05-09T10:25:55.315Z,1249.00
2023-05-09T10:26:55.347Z,1268.00
2023-05-09T10:27:55.362Z,1218.00
2023-05-09T10:28:55.375Z,1211.00
2023-05-09T10:29:55.378Z,1074.00
2023-05-09T10:30:55.420Z,888.00
2023-05-09T10:31:55.421Z,755.00
2023-05-09T10:32:55.454Z,757.00
2023-05-09T10:33:55.420Z,650.00
2023-05-09T10:34:55.412Z,609.00
2023-05-09T10:35:55.428Z,607.00
2023-05-09T10:36:55.514Z,613.00
2023-05-09T10:37:55.469Z,561.00
2023-05-09T10:38:55.512Z,562.00
2023-05-09T10:39:55.522Z,534.00
2023-05-09T10:40:55.563Z,506.00
2023-05-09T10:41:55.617Z,533.00
2023-05-09T10:42:55.650Z,555.00
2023-05-09T10:43:55.688Z,431.00
2023-05-09T10:44:55.741Z,436.00
2023-05-09T10:45:55.767Z,541.00
2023-05-09T10:46:55.826Z,618.00
2023-05-09T10:47:55.798Z,646.00
2023-05-09T10:48:55.831Z,657.00
2023-05-09T10:49:55.899Z,641.00
2023-05-09T10:50:55.882Z,652.00
2023-05-09T10:51:55.896Z,632.00
2023-05-09T10:52:55.969Z,610.00
2023-05-09T10:53:55.997Z,596.00
2023-05-09T10:54:56.199Z,559.00
2023-05-09T10:55:56.038Z,534.00
2023-05-09T10:56:56.087Z,527.00
2023-05-09T10:57:56.104Z,544.00
2023-05-09T10:58:56.136Z,536.00
2023-05-09T10:59:56.204Z,560.00
2023-05-09T11:00:57.254Z,546.00
2023-05-09T11:01:56.317Z,564.00
2023-05-09T11:02:56.340Z,548.00
2023-05-09T11:03:56.320Z,536.00
2023-05-09T11:04:56.715Z,563.00
2023-05-09T11:05:56.372Z,566.00
2023-05-09T11:06:57.771Z,567.00
2023-05-09T11:07:56.405Z,571.00
2023-05-09T11:08:56.514Z,568.00
2023-05-09T11:09:56.726Z,580.00
2023-05-09T11:10:56.526Z,569.00
2023-05-09T11:11:56.552Z,557.00
2023-05-09T11:12:58.004Z,559.00
2023-05-09T11:13:56.632Z,579.00
2023-05-09T11:14:56.725Z,590.00
2023-05-09T11:15:56.754Z,587.00
2023-05-09T11:16:56.783Z,591.00
2023-05-09T11:17:56.836Z,588.00
2023-05-09T11:18:56.856Z,590.00
2023-05-09T11:19:57.204Z,592.00
2023-05-09T11:20:56.963Z,598.00
2023-05-09T11:21:56.973Z,600.00
2023-05-09T11:22:57.005Z,606.00
2023-05-09T11:23:57.086Z,618.00
2023-05-09T11:24:57.332Z,628.00
2023-05-09T11:25:57.167Z,634.00
2023-05-09T11:26:57.203Z,630.00
2023-05-09T11:27:57.217Z,637.00
2023-05-09T11:28:57.299Z,638.00
2023-05-09T11:29:57.751Z,634.00
2023-05-09T11:30:57.409Z,638.00
2023-05-09T11:31:57.494Z,640.00
2023-05-09T11:32:57.498Z,651.00
2023-05-09T11:33:57.501Z,657.00
2023-05-09T11:34:57.719Z,659.00
2023-05-09T11:35:57.628Z,663.00
2023-05-09T11:36:57.647Z,662.00
2023-05-09T11:37:57.728Z,661.00
2023-05-09T11:38:57.795Z,659.00
2023-05-09T11:39:57.843Z,663.00
2023-05-09T11:40:57.952Z,657.00
2023-05-09T11:41:57.916Z,661.00
2023-05-09T11:42:58.805Z,660.00
2023-05-09T11:43:58.013Z,676.00
2023-05-09T11:44:58.225Z,684.00
2023-05-09T11:45:58.114Z,692.00
2023-05-09T11:46:58.154Z,686.00
2023-05-09T11:47:58.299Z,687.00
2023-05-09T11:48:58.272Z,717.00
2023-05-09T11:49:58.334Z,693.00
2023-05-09T11:50:58.382Z,728.00
2023-05-09T11:51:58.410Z,718.00
2023-05-09T11:52:58.503Z,705.00
2023-05-09T11:53:58.504Z,723.00
2023-05-09T11:54:58.712Z,734.00
2023-05-09T11:55:58.649Z,730.00
2023-05-09T11:56:58.778Z,737.00
2023-05-09T11:57:58.737Z,737.00
2023-05-09T11:58:58.807Z,733.00
2023-05-09T11:59:59.214Z,753.00
2023-05-09T12:00:58.861Z,743.00
2023-05-09T12:01:58.941Z,758.00
2023-05-09T12:02:59.084Z,744.00
2023-05-09T12:03:59.114Z,751.00
2023-05-09T12:04:59.074Z,762.00
2023-05-09T12:05:59.129Z,768.00
2023-05-09T12:06:59.188Z,751.00
2023-05-09T12:07:59.223Z,748.00
2023-05-09T12:08:59.319Z,773.00
2023-05-09T12:09:59.763Z,768.00
2023-05-09T12:10:59.394Z,782.00
2023-05-09T12:11:59.470Z,761.00
2023-05-09T12:12:59.614Z,760.00
2023-05-09T12:13:59.614Z,770.00
2023-05-09T12:14:59.748Z,776.00
2023-05-09T12:15:59.663Z,780.00
2023-05-09T12:16:59.713Z,774.00
2023-05-09T12:17:59.779Z,778.00
2023-05-09T12:18:59.797Z,779.00
2023-05-09T12:20:00.217Z,783.00
2023-05-09T12:20:59.863Z,783.00
2023-05-09T12:21:59.950Z,789.00
2023-05-09T12:22:59.988Z,780.00
2023-05-09T12:24:00.080Z,777.00
2023-05-09T12:25:00.237Z,784.00